createdAt,value
2022-08-28T00:01:02.457Z,11.07
2022-08-28T00:03:30.481Z,12.63
2022-08-28T00:05:59.906Z,26.20
2022-08-28T00:08:27.882Z,21.03
2022-08-28T00:10:55.613Z,17.70
2022-08-28T00:13:25.315Z,17.17
2022-08-28T00:15:57.994Z,14.47
2022-08-28T00:18:26.606Z,15.80
2022-08-28T00:20:54.753Z,17.03
2022-08-28T00:23:25.325Z,20.80
2022-08-28T00:25:55.980Z,19.00
2022-08-28T00:28:24.207Z,16.30
2022-08-28T00:30:54.644Z,13.83
2022-08-28T00:33:25.458Z,23.63
2022-08-28T00:35:53.033Z,14.33
2022-08-28T00:38:22.268Z,14.80
2022-08-28T00:40:54.164Z,13.23
2022-08-28T00:43:33.558Z,14.70
2022-08-28T00:46:02.097Z,15.97
2022-08-28T00:48:29.756Z,12.33
2022-08-28T00:51:15.782Z,16.13
2022-08-28T00:53:43.684Z,11.50
2022-08-28T00:56:14.461Z,21.07
2022-08-28T00:58:44.343Z,20.00
2022-08-28T01:01:13.624Z,19.07
2022-08-28T01:03:41.967Z,18.93
2022-08-28T01:06:10.058Z,21.93
2022-08-28T01:08:41.677Z,11.27
2022-08-28T01:11:10.785Z,12.30
2022-08-28T01:13:42.481Z,12.43
2022-08-28T01:16:10.277Z,12.43
2022-08-28T01:18:39.297Z,15.50
2022-08-28T01:21:20.021Z,13.33
2022-08-28T01:23:54.305Z,19.40
2022-08-28T01:26:22.918Z,11.47
2022-08-28T01:28:52.163Z,18.00
2022-08-28T01:31:20.528Z,17.80
2022-08-28T01:33:49.292Z,16.90
2022-08-28T01:36:17.760Z,10.40
2022-08-28T01:38:49.223Z,17.27
2022-08-28T01:41:18.169Z,12.53
2022-08-28T01:43:46.085Z,13.20
2022-08-28T01:46:13.715Z,15.23
2022-08-28T01:48:45.993Z,15.43
2022-08-28T01:51:14.427Z,11.60
2022-08-28T01:53:46.581Z,13.43
2022-08-28T01:56:16.545Z,15.73
2022-08-28T01:58:47.982Z,11.93
2022-08-28T02:01:18.288Z,14.53
2022-08-28T02:03:46.388Z,16.00
2022-08-28T02:06:15.013Z,15.60
2022-08-28T02:08:42.862Z,18.70
2022-08-28T02:11:10.819Z,17.33
2022-08-28T02:13:39.308Z,14.20
2022-08-28T02:16:10.895Z,10.40
2022-08-28T02:18:39.011Z,16.57
2022-08-28T02:21:08.223Z,18.67
2022-08-28T02:23:37.825Z,22.77
2022-08-28T02:26:05.429Z,14.57
2022-08-28T02:28:33.632Z,17.53
2022-08-28T02:31:01.657Z,12.63
2022-08-28T02:33:30.721Z,13.40
2022-08-28T02:35:58.418Z,19.07
2022-08-28T02:38:26.745Z,16.37
2022-08-28T02:40:54.392Z,24.00
2022-08-28T02:43:21.960Z,15.17
2022-08-28T02:45:49.542Z,16.90
2022-08-28T02:48:17.637Z,10.50
2022-08-28T02:50:47.092Z,16.67
2022-08-28T02:53:15.227Z,11.43
2022-08-28T02:55:42.808Z,16.77
2022-08-28T02:58:10.424Z,9.33
2022-08-28T03:00:38.076Z,16.23
2022-08-28T03:03:05.628Z,11.63
2022-08-28T03:05:33.186Z,9.20
2022-08-28T03:08:02.173Z,11.53
2022-08-28T03:10:29.796Z,7.67
2022-08-28T03:12:57.385Z,14.93
2022-08-28T03:15:24.934Z,7.73
2022-08-28T03:17:52.500Z,10.00
2022-08-28T03:20:20.297Z,15.80
2022-08-28T03:23:05.686Z,10.07
2022-08-28T03:25:34.604Z,8.97
2022-08-28T03:28:02.237Z,12.13
2022-08-28T03:30:30.353Z,11.23
2022-08-28T03:32:58.116Z,10.70
2022-08-28T03:35:25.697Z,13.43
2022-08-28T03:37:53.265Z,13.13
2022-08-28T03:40:21.826Z,12.27
2022-08-28T03:42:53.083Z,13.57
2022-08-28T03:45:22.221Z,9.50
2022-08-28T03:47:50.834Z,15.27
2022-08-28T03:50:19.824Z,12.93
2022-08-28T03:52:47.492Z,12.60
2022-08-28T03:55:15.117Z,15.23
2022-08-28T03:57:42.664Z,11.73
2022-08-28T04:00:14.194Z,9.30
2022-08-28T04:02:41.827Z,8.97
2022-08-28T04:05:11.029Z,11.13
2022-08-28T04:07:39.370Z,11.20
2022-08-28T04:10:08.077Z,19.53
2022-08-28T04:12:36.984Z,14.50
2022-08-28T04:15:06.981Z,14.20
2022-08-28T04:17:38.413Z,15.80
2022-08-28T04:20:07.240Z,17.10
2022-08-28T04:22:35.277Z,13.30
2022-08-28T04:25:02.973Z,21.57
2022-08-28T04:27:30.528Z,8.03
2022-08-28T04:29:58.096Z,10.43
2022-08-28T04:32:26.025Z,13.83
2022-08-28T04:34:55.030Z,16.63
2022-08-28T04:37:22.836Z,13.93
2022-08-28T04:39:55.896Z,14.23
2022-08-28T04:42:23.517Z,11.70
2022-08-28T04:44:51.162Z,13.00
2022-08-28T04:47:18.704Z,14.87
2022-08-28T04:49:46.337Z,12.30
2022-08-28T04:52:15.244Z,14.03
2022-08-28T04:54:43.063Z,12.13
2022-08-28T04:57:10.649Z,8.70
2022-08-28T04:59:39.089Z,13.57
2022-08-28T05:02:06.684Z,10.97
2022-08-28T05:04:34.347Z,10.87
2022-08-28T05:07:01.901Z,8.30
2022-08-28T05:09:31.811Z,9.57
2022-08-28T05:12:03.510Z,13.70
2022-08-28T05:14:31.734Z,11.90
2022-08-28T05:16:59.826Z,12.70
2022-08-28T05:19:28.904Z,7.33
2022-08-28T05:21:56.662Z,12.60
2022-08-28T05:24:24.383Z,12.07
2022-08-28T05:26:53.449Z,8.67
2022-08-28T05:29:21.065Z,14.20
2022-08-28T05:31:52.093Z,8.67
2022-08-28T05:34:20.382Z,8.60
2022-08-28T05:36:48.854Z,11.23
2022-08-28T05:39:18.618Z,9.70
2022-08-28T05:41:47.170Z,8.00
2022-08-28T05:44:18.194Z,10.97
2022-08-28T05:46:48.407Z,11.40
2022-08-28T05:49:17.803Z,8.57
2022-08-28T05:51:45.800Z,10.30
2022-08-28T05:54:14.813Z,11.40
2022-08-28T05:56:44.180Z,8.60
2022-08-28T05:59:13.136Z,10.17
2022-08-28T06:01:43.613Z,6.63
2022-08-28T06:04:14.499Z,10.17
2022-08-28T06:06:43.141Z,9.00
2022-08-28T06:09:13.179Z,9.90
2022-08-28T06:11:44.806Z,13.53
2022-08-28T06:14:16.243Z,11.87
2022-08-28T06:16:48.465Z,9.57
2022-08-28T06:19:17.846Z,9.77
2022-08-28T06:21:46.791Z,7.17
2022-08-28T06:24:14.906Z,8.27
2022-08-28T06:26:42.634Z,9.07
2022-08-28T06:29:12.541Z,5.60
2022-08-28T06:31:40.717Z,9.90
2022-08-28T06:34:10.479Z,8.70
2022-08-28T06:36:40.971Z,13.00
2022-08-28T06:39:10.004Z,7.80
2022-08-28T06:41:40.904Z,9.90
2022-08-28T06:44:09.185Z,13.77
2022-08-28T06:46:36.831Z,10.27
2022-08-28T06:49:08.299Z,11.43
2022-08-28T06:51:37.417Z,7.97
2022-08-28T06:54:06.848Z,8.53
2022-08-28T06:56:34.945Z,6.17
2022-08-28T06:59:02.790Z,8.00
2022-08-28T07:01:32.889Z,6.83
2022-08-28T07:04:04.411Z,8.40
2022-08-28T07:06:34.178Z,8.43
2022-08-28T07:09:05.186Z,8.80
2022-08-28T07:11:34.877Z,7.27
2022-08-28T07:14:03.526Z,7.43
2022-08-28T07:16:33.219Z,10.57
2022-08-28T07:19:03.551Z,8.20
2022-08-28T07:21:31.908Z,8.77
2022-08-28T07:23:59.609Z,8.50
2022-08-28T07:26:28.516Z,7.60
2022-08-28T07:29:09.875Z,7.57
2022-08-28T07:31:41.317Z,11.73
2022-08-28T07:34:10.445Z,16.20
2022-08-28T07:36:38.443Z,12.87
2022-08-28T07:39:07.582Z,7.13
2022-08-28T07:41:40.133Z,10.70
2022-08-28T07:44:25.902Z,11.83
2022-08-28T07:46:54.808Z,8.87
2022-08-28T07:49:23.564Z,11.47
2022-08-28T07:51:54.347Z,10.70
2022-08-28T07:54:22.633Z,9.90
2022-08-28T07:56:52.556Z,14.90
2022-08-28T07:59:20.563Z,10.63
2022-08-28T08:01:51.727Z,10.30
2022-08-28T08:04:21.784Z,14.23
2022-08-28T08:06:53.408Z,10.70
2022-08-28T08:09:24.737Z,11.27
2022-08-28T08:11:54.668Z,11.17
2022-08-28T08:14:22.648Z,9.73
2022-08-28T08:16:51.570Z,8.97
2022-08-28T08:19:20.276Z,14.23
2022-08-28T08:21:54.926Z,10.37
2022-08-28T08:24:25.869Z,15.20
2022-08-28T08:26:59.889Z,10.03
2022-08-28T08:29:29.782Z,8.77
2022-08-28T08:31:58.753Z,9.60
2022-08-28T08:34:26.686Z,16.27
2022-08-28T08:36:54.338Z,8.67
2022-08-28T08:39:21.941Z,14.57
2022-08-28T08:41:52.509Z,10.37
2022-08-28T08:44:32.484Z,11.93
2022-08-28T08:47:13.803Z,8.27
2022-08-28T08:49:48.610Z,12.90
2022-08-28T08:52:30.927Z,6.73
2022-08-28T08:55:23.008Z,10.10
2022-08-28T08:58:00.113Z,12.67
2022-08-28T09:00:29.744Z,14.30
2022-08-28T09:03:05.374Z,9.77
2022-08-28T09:05:48.323Z,8.50
2022-08-28T09:08:33.069Z,9.60
2022-08-28T09:11:05.542Z,9.37
2022-08-28T09:13:49.382Z,9.20
2022-08-28T09:16:25.340Z,11.20
2022-08-28T09:18:55.183Z,10.07
2022-08-28T09:21:29.387Z,9.73
2022-08-28T09:24:01.166Z,8.20
2022-08-28T09:26:33.641Z,10.00
2022-08-28T09:29:04.259Z,7.13
2022-08-28T09:31:36.407Z,9.53
2022-08-28T09:34:27.317Z,6.23
2022-08-28T09:36:56.376Z,6.67
2022-08-28T09:39:26.434Z,12.30
2022-08-28T09:42:17.706Z,9.87
2022-08-28T09:44:52.549Z,9.27
2022-08-28T09:47:46.234Z,6.37
2022-08-28T09:50:36.288Z,11.17
2022-08-28T09:53:20.467Z,7.43
2022-08-28T09:55:57.037Z,8.60
2022-08-28T09:58:37.309Z,17.53
2022-08-28T10:01:43.390Z,10.37
2022-08-28T10:04:30.435Z,12.70
2022-08-28T10:07:04.866Z,11.17
2022-08-28T10:09:47.700Z,8.20
2022-08-28T10:12:29.708Z,9.67
2022-08-28T10:15:05.008Z,13.33
2022-08-28T10:17:40.670Z,10.93
2022-08-28T10:20:17.804Z,11.60
2022-08-28T10:22:53.413Z,8.20
2022-08-28T10:25:32.406Z,10.80
2022-08-28T10:28:20.501Z,12.23
2022-08-28T10:30:57.932Z,9.30
2022-08-28T10:33:39.990Z,9.57
2022-08-28T10:36:33.812Z,15.43
2022-08-28T10:39:13.050Z,11.10
2022-08-28T10:41:45.904Z,10.00
2022-08-28T10:44:19.051Z,11.60
2022-08-28T10:46:51.679Z,12.57
2022-08-28T10:49:26.295Z,11.37
2022-08-28T10:52:00.612Z,15.00
2022-08-28T10:54:38.800Z,14.50
2022-08-28T10:57:10.990Z,6.73
2022-08-28T10:59:42.356Z,10.43
2022-08-28T11:02:13.969Z,10.07
2022-08-28T11:04:41.813Z,10.90
2022-08-28T11:07:14.396Z,8.57
2022-08-28T11:09:47.897Z,12.37
2022-08-28T11:12:35.140Z,10.23
2022-08-28T11:15:38.938Z,9.23
2022-08-28T11:18:38.637Z,9.20
2022-08-28T11:21:13.474Z,9.27
2022-08-28T11:23:48.825Z,12.47
2022-08-28T11:26:29.845Z,6.80
2022-08-28T11:28:57.670Z,14.00
2022-08-28T11:31:40.577Z,11.30
2022-08-28T11:34:08.328Z,11.30
2022-08-28T11:37:01.643Z,6.00
2022-08-28T11:39:30.881Z,8.00
2022-08-28T11:42:32.331Z,11.83
2022-08-28T11:45:00.540Z,11.67
2022-08-28T11:47:56.341Z,10.67
2022-08-28T11:50:33.677Z,13.10
2022-08-28T11:53:34.603Z,10.27
2022-08-28T11:56:30.437Z,7.73
2022-08-28T11:59:11.275Z,11.13
2022-08-28T12:01:39.294Z,14.03
2022-08-28T12:04:09.141Z,12.93
2022-08-28T12:06:51.664Z,9.00
2022-08-28T12:09:52.721Z,9.90
2022-08-28T12:12:53.820Z,6.17
2022-08-28T12:15:42.635Z,10.20
2022-08-28T12:18:36.651Z,13.00
2022-08-28T12:21:07.590Z,9.40
2022-08-28T12:23:39.443Z,9.33
2022-08-28T12:26:10.592Z,8.03
2022-08-28T12:28:47.715Z,7.63
2022-08-28T12:31:46.613Z,13.93
2022-08-28T12:34:20.789Z,7.97
2022-08-28T12:36:57.450Z,11.97
2022-08-28T12:39:25.716Z,12.97
2022-08-28T12:41:53.368Z,13.50
2022-08-28T12:44:26.610Z,10.67
2022-08-28T12:46:55.157Z,14.27
2022-08-28T12:49:34.872Z,8.67
2022-08-28T12:52:16.740Z,13.07
2022-08-28T12:54:45.661Z,8.17
2022-08-28T12:57:15.766Z,11.93
2022-08-28T12:59:45.316Z,9.30
2022-08-28T13:02:23.958Z,11.30
2022-08-28T13:04:55.720Z,9.77
2022-08-28T13:07:28.774Z,9.50
2022-08-28T13:10:00.768Z,8.97
2022-08-28T13:12:54.843Z,10.30
2022-08-28T13:15:43.057Z,11.67
2022-08-28T13:18:11.507Z,11.93
2022-08-28T13:20:39.884Z,12.83
2022-08-28T13:23:09.037Z,15.83
2022-08-28T13:25:38.779Z,7.50
2022-08-28T13:28:14.021Z,10.13
2022-08-28T13:30:42.009Z,10.93
2022-08-28T13:33:22.471Z,17.60
2022-08-28T13:35:50.560Z,8.77
2022-08-28T13:38:20.760Z,10.43
2022-08-28T13:40:57.938Z,9.90
2022-08-28T13:43:27.943Z,13.43
2022-08-28T13:45:55.658Z,10.13
2022-08-28T13:48:25.962Z,13.27
2022-08-28T13:50:59.513Z,10.10
2022-08-28T13:53:28.520Z,10.33
2022-08-28T13:55:56.198Z,14.53
2022-08-28T13:58:24.002Z,11.03
2022-08-28T14:00:54.145Z,8.43
2022-08-28T14:03:38.078Z,8.03
2022-08-28T14:06:11.847Z,12.17
2022-08-28T14:08:41.473Z,10.13
2022-08-28T14:11:11.891Z,11.53
2022-08-28T14:13:47.224Z,7.63
2022-08-28T14:16:23.717Z,10.50
2022-08-28T14:18:52.565Z,9.43
2022-08-28T14:21:20.169Z,16.80
2022-08-28T14:23:49.073Z,10.00
2022-08-28T14:26:16.642Z,14.87
2022-08-28T14:28:44.193Z,15.40
2022-08-28T14:31:14.576Z,9.53
2022-08-28T14:33:45.346Z,10.43
2022-08-28T14:36:16.240Z,11.10
2022-08-28T14:38:43.796Z,8.03
2022-08-28T14:41:14.685Z,10.93
2022-08-28T14:43:42.541Z,8.47
2022-08-28T14:46:16.066Z,11.53
2022-08-28T14:48:43.690Z,9.83
2022-08-28T14:51:11.622Z,8.30
2022-08-28T14:53:39.188Z,11.93
2022-08-28T14:56:08.444Z,11.13
2022-08-28T14:58:37.957Z,12.83
2022-08-28T15:01:06.554Z,16.13
2022-08-28T15:03:34.691Z,10.03
2022-08-28T15:06:03.789Z,10.83
2022-08-28T15:08:31.780Z,14.63
2022-08-28T15:10:59.428Z,21.63
2022-08-28T15:13:31.442Z,13.50
2022-08-28T15:16:05.237Z,10.10
2022-08-28T15:18:42.986Z,10.87
2022-08-28T15:21:16.981Z,18.53
2022-08-28T15:23:44.576Z,12.50
2022-08-28T15:26:15.561Z,10.83
2022-08-28T15:28:43.256Z,12.43
2022-08-28T15:31:12.232Z,7.20
2022-08-28T15:33:44.660Z,14.27
2022-08-28T15:36:12.872Z,9.77
2022-08-28T15:38:54.368Z,11.80
2022-08-28T15:41:27.016Z,19.17
2022-08-28T15:43:55.904Z,11.23
2022-08-28T15:46:25.181Z,10.87
2022-08-28T15:48:54.527Z,11.90
2022-08-28T15:51:26.074Z,14.57
2022-08-28T15:53:53.982Z,13.73
2022-08-28T15:56:21.717Z,13.33
2022-08-28T15:58:49.440Z,15.57
2022-08-28T16:01:17.039Z,14.07
2022-08-28T16:03:46.108Z,13.87
2022-08-28T16:06:15.857Z,16.93
2022-08-28T16:08:44.368Z,13.23
2022-08-28T16:11:12.685Z,11.33
2022-08-28T16:13:40.783Z,12.33
2022-08-28T16:16:08.655Z,10.40
2022-08-28T16:18:36.248Z,22.63
2022-08-28T16:21:05.673Z,11.87
2022-08-28T16:23:33.517Z,13.67
2022-08-28T16:26:02.415Z,12.80
2022-08-28T16:28:30.012Z,14.33
2022-08-28T16:30:58.071Z,13.07
2022-08-28T16:33:27.015Z,14.03
2022-08-28T16:35:56.550Z,9.60
2022-08-28T16:38:26.273Z,9.70
2022-08-28T16:40:54.210Z,8.60
2022-08-28T16:43:21.765Z,11.17
2022-08-28T16:45:50.932Z,9.30
2022-08-28T16:48:18.809Z,13.37
2022-08-28T16:50:46.573Z,12.03
2022-08-28T16:53:14.297Z,10.20
2022-08-28T16:55:48.972Z,13.73
2022-08-28T16:58:17.255Z,13.33
2022-08-28T17:00:52.617Z,17.20
2022-08-28T17:03:26.353Z,16.93
2022-08-28T17:05:55.989Z,21.33
2022-08-28T17:08:23.693Z,11.43
2022-08-28T17:10:52.630Z,13.80
2022-08-28T17:13:20.175Z,11.87
2022-08-28T17:15:47.744Z,17.93
2022-08-28T17:18:15.340Z,10.97
2022-08-28T17:21:00.657Z,13.10
2022-08-28T17:23:28.435Z,14.50
2022-08-28T17:25:57.631Z,16.30
2022-08-28T17:28:25.208Z,16.63
2022-08-28T17:30:52.801Z,13.30
2022-08-28T17:33:20.478Z,17.10
2022-08-28T17:35:50.345Z,18.37
2022-08-28T17:38:19.702Z,19.33
2022-08-28T17:40:47.287Z,16.90
2022-08-28T17:43:16.200Z,11.07
2022-08-28T17:45:43.974Z,17.10
2022-08-28T17:48:11.573Z,13.50
2022-08-28T17:50:39.165Z,14.23
2022-08-28T17:53:06.725Z,13.77
2022-08-28T17:55:34.273Z,15.77
2022-08-28T17:58:02.605Z,17.60
2022-08-28T18:00:31.968Z,13.87
2022-08-28T18:02:59.948Z,17.37
2022-08-28T18:05:27.834Z,12.87
2022-08-28T18:07:55.484Z,15.60
2022-08-28T18:10:23.047Z,12.80
2022-08-28T18:12:50.821Z,16.60
2022-08-28T18:15:18.475Z,9.90
2022-08-28T18:17:50.317Z,18.20
2022-08-28T18:20:18.813Z,18.73
2022-08-28T18:22:46.881Z,22.93
2022-08-28T18:25:35.178Z,11.90
2022-08-28T18:28:03.517Z,21.30
2022-08-28T18:30:31.125Z,15.90
2022-08-28T18:33:00.291Z,16.47
2022-08-28T18:35:31.764Z,20.67
2022-08-28T18:38:00.181Z,22.40
2022-08-28T18:40:28.063Z,24.77
2022-08-28T18:42:55.739Z,29.30
2022-08-28T18:45:23.341Z,15.77
2022-08-28T18:47:51.341Z,15.40
2022-08-28T18:50:22.056Z,18.70
2022-08-28T18:52:50.858Z,18.10
2022-08-28T18:55:19.197Z,18.13
2022-08-28T18:57:46.884Z,25.40
2022-08-28T19:00:15.976Z,27.13
2022-08-28T19:02:44.149Z,17.30
2022-08-28T19:05:12.845Z,24.90
2022-08-28T19:07:41.805Z,17.80
2022-08-28T19:10:32.174Z,24.43
2022-08-28T19:13:01.790Z,13.70
2022-08-28T19:15:30.078Z,12.47
2022-08-28T19:18:00.156Z,16.70
2022-08-28T19:20:28.459Z,14.30
2022-08-28T19:22:58.646Z,21.80
2022-08-28T19:25:29.216Z,20.60
2022-08-28T19:27:59.125Z,20.70
2022-08-28T19:30:28.879Z,17.57
2022-08-28T19:32:56.940Z,20.70
2022-08-28T19:35:27.738Z,16.27
2022-08-28T19:37:56.692Z,18.73
2022-08-28T19:40:24.464Z,24.07
2022-08-28T19:42:52.664Z,16.00
2022-08-28T19:45:20.904Z,14.93
2022-08-28T19:47:48.557Z,20.13
2022-08-28T19:50:16.789Z,15.33
2022-08-28T19:52:45.870Z,20.00
2022-08-28T19:55:18.192Z,18.63
2022-08-28T19:57:48.447Z,22.53
2022-08-28T20:00:18.159Z,16.40
2022-08-28T20:02:46.299Z,22.53
2022-08-28T20:05:13.977Z,18.43
2022-08-28T20:07:42.057Z,23.23
2022-08-28T20:10:10.524Z,15.17
2022-08-28T20:12:39.677Z,19.00
2022-08-28T20:15:14.468Z,14.27
2022-08-28T20:17:49.365Z,22.33
2022-08-28T20:20:19.433Z,35.07
2022-08-28T20:22:47.020Z,17.40
2022-08-28T20:25:18.073Z,20.33
2022-08-28T20:27:47.026Z,18.77
2022-08-28T20:30:15.015Z,16.20
2022-08-28T20:32:42.617Z,13.67
2022-08-28T20:35:11.804Z,23.40
2022-08-28T20:37:44.865Z,22.90
2022-08-28T20:40:13.744Z,22.40
2022-08-28T20:42:41.342Z,18.83
2022-08-28T20:45:11.809Z,15.10
2022-08-28T20:47:39.354Z,24.73
2022-08-28T20:50:08.562Z,21.30
2022-08-28T20:52:36.164Z,19.20
2022-08-28T20:55:04.997Z,23.93
2022-08-28T20:57:32.584Z,17.40
2022-08-28T21:00:05.298Z,19.33
2022-08-28T21:02:34.649Z,24.00
2022-08-28T21:05:02.493Z,27.80
2022-08-28T21:07:30.332Z,34.10
2022-08-28T21:10:05.703Z,17.33
2022-08-28T21:12:35.194Z,19.80
2022-08-28T21:15:02.871Z,22.03
2022-08-28T21:17:30.981Z,20.47
2022-08-28T21:20:03.168Z,24.77
2022-08-28T21:22:32.992Z,24.23
2022-08-28T21:25:03.223Z,21.63
2022-08-28T21:27:31.460Z,34.50
2022-08-28T21:30:01.135Z,21.40
2022-08-28T21:32:30.406Z,25.03
2022-08-28T21:34:58.374Z,21.80
2022-08-28T21:37:27.904Z,17.93
2022-08-28T21:39:56.508Z,17.17
2022-08-28T21:42:24.438Z,29.27
2022-08-28T21:44:52.298Z,27.93
2022-08-28T21:47:21.243Z,23.20
2022-08-28T21:49:49.289Z,22.30
2022-08-28T21:52:17.092Z,21.60
2022-08-28T21:54:47.152Z,19.00
2022-08-28T21:57:15.104Z,28.03
2022-08-28T21:59:43.308Z,21.90
2022-08-28T22:02:10.924Z,17.77
2022-08-28T22:04:38.770Z,28.57
2022-08-28T22:07:06.483Z,23.57
2022-08-28T22:09:34.070Z,21.10
2022-08-28T22:12:03.341Z,23.40
2022-08-28T22:14:30.936Z,26.07
2022-08-28T22:16:58.850Z,21.03
2022-08-28T22:19:26.480Z,26.93
2022-08-28T22:22:11.692Z,21.47
2022-08-28T22:24:39.320Z,28.43
2022-08-28T22:27:08.284Z,21.40
2022-08-28T22:29:37.181Z,14.70
2022-08-28T22:32:05.605Z,18.20
2022-08-28T22:34:39.192Z,18.50
2022-08-28T22:37:06.993Z,22.80
2022-08-28T22:39:34.587Z,21.13
2022-08-28T22:42:02.140Z,22.20
2022-08-28T22:44:31.084Z,18.70
2022-08-28T22:46:58.973Z,21.13
2022-08-28T22:49:26.804Z,23.63
2022-08-28T22:51:54.348Z,33.33
2022-08-28T22:54:21.912Z,19.40
2022-08-28T22:56:49.468Z,19.13
2022-08-28T22:59:17.084Z,24.50
2022-08-28T23:01:46.106Z,21.33
2022-08-28T23:04:13.795Z,20.80
2022-08-28T23:06:41.388Z,22.60
2022-08-28T23:09:09.545Z,24.70
2022-08-28T23:11:37.961Z,19.80
2022-08-28T23:14:05.623Z,17.53
2022-08-28T23:16:33.421Z,24.97
2022-08-28T23:19:08.632Z,23.10
2022-08-28T23:21:43.371Z,21.37
2022-08-28T23:24:12.213Z,22.30
2022-08-28T23:26:39.850Z,19.27
2022-08-28T23:29:07.436Z,21.63
2022-08-28T23:31:35.146Z,21.37
2022-08-28T23:34:05.006Z,20.50
2022-08-28T23:36:35.369Z,20.73
2022-08-28T23:39:03.575Z,16.87
2022-08-28T23:41:31.530Z,16.10
2022-08-28T23:43:59.125Z,15.23
2022-08-28T23:46:26.738Z,16.57
2022-08-28T23:48:55.073Z,16.83
2022-08-28T23:51:24.565Z,21.73
2022-08-28T23:53:52.887Z,16.67
2022-08-28T23:56:20.511Z,15.07
2022-08-28T23:58:48.089Z,16.20
